createdAt,value
2022-10-21T00:01:14.804Z,92.81
2022-10-21T00:03:43.321Z,93.09
2022-10-21T00:06:12.171Z,93.25
2022-10-21T00:08:40.584Z,94.20
2022-10-21T00:11:11.076Z,94.37
2022-10-21T00:13:40.687Z,94.65
2022-10-21T00:16:10.817Z,94.93
2022-10-21T00:18:42.290Z,95.16
2022-10-21T00:21:12.985Z,96.28
2022-10-21T00:23:41.113Z,96.28
2022-10-21T00:26:09.693Z,96.69
2022-10-21T00:28:37.973Z,96.39
2022-10-21T00:31:09.929Z,97.03
2022-10-21T00:33:39.469Z,97.20
2022-10-21T00:36:08.645Z,97.41
2022-10-21T00:38:37.499Z,97.05
2022-10-21T00:41:05.584Z,97.78
2022-10-21T00:43:35.109Z,98.04
2022-10-21T00:46:07.107Z,97.72
2022-10-21T00:48:39.768Z,97.90
2022-10-21T00:51:12.257Z,97.37
2022-10-21T00:53:43.637Z,97.26
2022-10-21T00:56:16.955Z,97.42
2022-10-21T00:58:47.018Z,97.42
2022-10-21T01:01:17.958Z,98.43
2022-10-21T01:03:48.834Z,98.99
2022-10-21T01:06:21.416Z,100.00
2022-10-21T01:08:50.108Z,100.00
2022-10-21T01:11:20.616Z,99.55
2022-10-21T01:14:02.745Z,100.00
2022-10-21T01:16:37.670Z,99.96
2022-10-21T01:19:22.592Z,99.83
2022-10-21T01:21:59.184Z,99.98
2022-10-21T01:24:58.697Z,100.00
2022-10-21T01:27:39.840Z,100.00
2022-10-21T01:30:14.649Z,100.00
2022-10-21T01:32:53.304Z,100.00
2022-10-21T01:35:25.359Z,100.00
2022-10-21T01:38:03.221Z,100.00
2022-10-21T01:40:36.046Z,100.00
2022-10-21T01:43:14.236Z,100.00
2022-10-21T01:45:49.763Z,100.00
2022-10-21T01:48:23.330Z,100.00
2022-10-21T01:50:56.078Z,100.00
2022-10-21T01:53:29.103Z,100.00
2022-10-21T01:55:59.701Z,100.00
2022-10-21T01:58:31.343Z,100.00
2022-10-21T02:01:02.088Z,100.00
2022-10-21T02:03:34.671Z,100.00
2022-10-21T02:06:02.897Z,100.00
2022-10-21T02:08:31.142Z,100.00
2022-10-21T02:11:02.428Z,100.00
2022-10-21T02:13:35.620Z,100.00
2022-10-21T02:16:08.433Z,100.00
2022-10-21T02:18:37.985Z,100.00
2022-10-21T02:21:10.180Z,100.00
2022-10-21T02:23:43.828Z,100.00
2022-10-21T02:26:12.410Z,100.00
2022-10-21T02:28:41.375Z,100.00
2022-10-21T02:31:20.996Z,100.00
2022-10-21T02:34:00.202Z,100.00
2022-10-21T02:36:37.920Z,100.00
2022-10-21T02:39:14.821Z,100.00
2022-10-21T02:41:45.716Z,100.00
2022-10-21T02:44:14.418Z,100.00
2022-10-21T02:46:45.780Z,100.00
2022-10-21T02:49:15.388Z,100.00
2022-10-21T02:51:44.564Z,100.00
2022-10-21T02:54:13.396Z,100.00
2022-10-21T02:56:41.530Z,100.00
2022-10-21T02:59:10.081Z,100.00
2022-10-21T03:01:38.168Z,100.00
2022-10-21T03:04:07.216Z,100.00
2022-10-21T03:06:36.726Z,100.00
2022-10-21T03:09:05.503Z,100.00
2022-10-21T03:11:33.658Z,100.00
2022-10-21T03:14:01.818Z,100.00
2022-10-21T03:16:29.972Z,100.00
2022-10-21T03:18:58.054Z,100.00
2022-10-21T03:21:26.968Z,100.00
2022-10-21T03:23:56.498Z,100.00
2022-10-21T03:26:24.596Z,100.00
2022-10-21T03:28:52.687Z,100.00
2022-10-21T03:31:20.805Z,100.00
2022-10-21T03:33:48.858Z,100.00
2022-10-21T03:36:16.988Z,100.00
2022-10-21T03:38:45.092Z,100.00
2022-10-21T03:41:14.539Z,100.00
2022-10-21T03:43:42.636Z,100.00
2022-10-21T03:46:10.818Z,100.00
2022-10-21T03:48:38.894Z,100.00
2022-10-21T03:51:07.235Z,100.00
2022-10-21T03:53:43.368Z,100.00
2022-10-21T03:56:12.059Z,100.00
2022-10-21T03:58:42.158Z,100.00
2022-10-21T04:01:13.357Z,100.00
2022-10-21T04:03:41.966Z,100.00
2022-10-21T04:06:10.294Z,100.00
2022-10-21T04:08:38.444Z,100.00
2022-10-21T04:11:09.395Z,100.00
2022-10-21T04:13:37.789Z,100.00
2022-10-21T04:16:11.977Z,100.00
2022-10-21T04:18:40.044Z,100.00
2022-10-21T04:21:08.833Z,100.00
2022-10-21T04:23:37.165Z,100.00
2022-10-21T04:26:06.468Z,100.00
2022-10-21T04:28:35.038Z,100.00
2022-10-21T04:31:03.795Z,100.00
2022-10-21T04:33:33.297Z,100.00
2022-10-21T04:36:01.316Z,100.00
2022-10-21T04:38:29.820Z,100.00
2022-10-21T04:40:58.926Z,100.00
2022-10-21T04:43:27.460Z,100.00
2022-10-21T04:45:55.726Z,100.00
2022-10-21T04:48:24.413Z,100.00
2022-10-21T04:50:54.486Z,100.00
2022-10-21T04:53:23.084Z,100.00
2022-10-21T04:55:52.728Z,100.00
2022-10-21T04:58:22.117Z,100.00
2022-10-21T05:00:51.033Z,100.00
2022-10-21T05:03:19.708Z,100.00
2022-10-21T05:05:50.851Z,100.00
2022-10-21T05:08:20.531Z,100.00
2022-10-21T05:10:49.033Z,100.00
2022-10-21T05:13:17.730Z,100.00
2022-10-21T05:15:45.788Z,100.00
2022-10-21T05:18:14.009Z,100.00
2022-10-21T05:20:42.612Z,100.00
2022-10-21T05:23:10.828Z,100.00
2022-10-21T05:25:40.330Z,100.00
2022-10-21T05:28:08.540Z,100.00
2022-10-21T05:30:36.738Z,100.00
2022-10-21T05:33:05.039Z,100.00
2022-10-21T05:35:33.251Z,100.00
2022-10-21T05:38:01.351Z,100.00
2022-10-21T05:40:29.423Z,100.00
2022-10-21T05:42:59.385Z,99.00
2022-10-21T05:45:28.210Z,97.99
2022-10-21T05:47:56.888Z,96.46
2022-10-21T05:50:25.042Z,96.37
2022-10-21T05:52:54.760Z,94.74
2022-10-21T05:55:23.746Z,94.16
2022-10-21T06:00:26.557Z,95.05
2022-10-21T06:02:55.668Z,94.43
2022-10-21T06:05:24.808Z,94.89
2022-10-21T06:07:57.703Z,94.27
2022-10-21T06:10:28.360Z,93.98
2022-10-21T06:12:58.188Z,93.46
2022-10-21T06:15:28.425Z,93.10
2022-10-21T06:17:57.651Z,92.36
2022-10-21T06:20:25.724Z,91.15
2022-10-21T06:22:53.853Z,90.92
2022-10-21T06:25:23.861Z,90.80
2022-10-21T06:27:53.088Z,89.14
2022-10-21T06:30:23.049Z,87.71
2022-10-21T06:32:53.085Z,87.33
2022-10-21T06:35:21.226Z,86.84
2022-10-21T06:37:49.329Z,87.75
2022-10-21T06:40:17.586Z,87.71
2022-10-21T06:42:45.709Z,87.11
2022-10-21T06:45:14.493Z,85.90
2022-10-21T06:47:42.768Z,86.61
2022-10-21T06:50:14.021Z,84.99
2022-10-21T06:52:42.318Z,82.75
2022-10-21T06:55:10.896Z,82.69
2022-10-21T06:57:39.324Z,80.56
2022-10-21T07:00:09.140Z,79.47
2022-10-21T07:02:37.592Z,79.91
2022-10-21T07:05:07.082Z,78.58
2022-10-21T07:07:37.230Z,77.82
2022-10-21T07:10:06.277Z,76.44
2022-10-21T07:12:34.568Z,75.74
2022-10-21T07:15:02.946Z,75.77
2022-10-21T07:17:31.676Z,77.64
2022-10-21T07:20:01.854Z,77.94
2022-10-21T07:22:30.105Z,77.78
2022-10-21T07:27:28.427Z,74.66
2022-10-21T07:29:56.932Z,74.34
2022-10-21T07:32:25.102Z,73.85
2022-10-21T07:34:53.225Z,74.07
2022-10-21T07:37:21.279Z,73.39
2022-10-21T07:39:49.379Z,71.70
2022-10-21T07:42:18.908Z,73.13
2022-10-21T07:44:47.098Z,72.11
2022-10-21T07:47:15.134Z,72.45
2022-10-21T07:49:43.203Z,71.81
2022-10-21T07:52:11.388Z,73.51
2022-10-21T07:54:39.542Z,73.54
2022-10-21T07:57:07.610Z,72.83
2022-10-21T07:59:37.838Z,72.31
2022-10-21T08:02:06.192Z,72.61
2022-10-21T08:04:34.323Z,72.07
2022-10-21T08:07:02.610Z,72.70
2022-10-21T08:09:31.029Z,72.59
2022-10-21T08:11:59.260Z,72.41
2022-10-21T08:14:27.362Z,73.04
2022-10-21T08:16:57.231Z,72.15
2022-10-21T08:19:29.717Z,72.50
2022-10-21T08:21:59.287Z,71.98
2022-10-21T08:24:28.164Z,72.15
2022-10-21T08:26:56.931Z,72.17
2022-10-21T08:29:24.934Z,72.37
2022-10-21T08:31:52.993Z,72.94
2022-10-21T08:34:22.610Z,73.53
2022-10-21T08:36:50.705Z,72.71
2022-10-21T08:39:18.802Z,72.98
2022-10-21T08:42:01.030Z,72.84
2022-10-21T08:44:37.745Z,72.58
2022-10-21T08:47:14.668Z,72.73
2022-10-21T08:49:52.159Z,73.01
2022-10-21T08:52:23.570Z,71.71
2022-10-21T08:54:58.112Z,71.66
2022-10-21T08:57:27.351Z,71.24
2022-10-21T08:59:56.047Z,71.65
2022-10-21T09:02:39.669Z,71.53
2022-10-21T09:05:27.722Z,71.33
2022-10-21T09:08:07.045Z,71.42
2022-10-21T09:10:52.014Z,71.11
2022-10-21T09:13:34.778Z,71.20
2022-10-21T09:16:09.484Z,71.21
2022-10-21T09:18:54.457Z,69.69
2022-10-21T09:21:32.014Z,68.42
2022-10-21T09:24:07.765Z,68.79
2022-10-21T09:26:40.028Z,67.92
2022-10-21T09:29:27.077Z,67.91
2022-10-21T09:32:02.582Z,68.22
2022-10-21T09:34:44.918Z,69.00
2022-10-21T09:37:23.826Z,69.05
2022-10-21T09:40:02.361Z,69.66
2022-10-21T09:42:46.433Z,69.19
2022-10-21T09:45:23.899Z,69.07
2022-10-21T09:47:58.183Z,68.21
2022-10-21T09:50:27.953Z,66.79
2022-10-21T09:53:05.959Z,65.55
2022-10-21T09:55:34.758Z,65.41
2022-10-21T09:58:03.854Z,65.25
2022-10-21T10:00:49.985Z,66.35
2022-10-21T10:03:32.557Z,66.75
2022-10-21T10:06:01.741Z,66.50
2022-10-21T10:08:35.246Z,66.19
2022-10-21T10:11:05.801Z,67.42
2022-10-21T10:13:33.842Z,67.52
2022-10-21T10:16:24.167Z,65.61
2022-10-21T10:18:54.429Z,65.41
2022-10-21T10:21:23.924Z,66.16
2022-10-21T10:23:56.743Z,65.09
2022-10-21T10:26:29.884Z,65.19
2022-10-21T10:29:04.054Z,65.47
2022-10-21T10:31:35.095Z,65.26
2022-10-21T10:34:06.750Z,64.80
2022-10-21T10:36:38.086Z,65.61
2022-10-21T10:39:16.552Z,65.70
2022-10-21T10:41:50.694Z,65.03
2022-10-21T10:44:28.659Z,65.15
2022-10-21T10:46:58.421Z,64.24
2022-10-21T10:49:27.534Z,65.78
2022-10-21T10:52:17.999Z,65.37
2022-10-21T10:54:47.472Z,64.33
2022-10-21T10:57:19.951Z,62.91
2022-10-21T10:59:53.051Z,62.54
2022-10-21T11:02:30.181Z,62.27
2022-10-21T11:05:23.609Z,62.85
2022-10-21T11:07:53.456Z,62.44
2022-10-21T11:10:44.595Z,62.96
2022-10-21T11:13:16.492Z,62.78
2022-10-21T11:16:11.293Z,62.04
2022-10-21T11:18:49.431Z,61.30
2022-10-21T11:21:43.842Z,62.64
2022-10-21T11:24:51.561Z,62.54
2022-10-21T11:27:41.219Z,63.52
2022-10-21T11:30:14.882Z,61.99
2022-10-21T11:32:56.693Z,60.83
2022-10-21T11:35:35.864Z,61.05
2022-10-21T11:38:24.365Z,60.94
2022-10-21T11:40:58.826Z,60.86
2022-10-21T11:43:40.504Z,61.51
2022-10-21T11:46:15.113Z,62.05
2022-10-21T11:48:53.803Z,61.01
2022-10-21T11:51:35.211Z,60.14
2022-10-21T11:54:22.650Z,60.82
2022-10-21T11:56:59.297Z,60.25
2022-10-21T11:59:41.694Z,58.85
2022-10-21T12:02:18.082Z,59.01
2022-10-21T12:04:57.000Z,59.50
2022-10-21T12:07:42.874Z,59.13
2022-10-21T12:10:20.475Z,60.07
2022-10-21T12:12:52.921Z,60.28
2022-10-21T12:15:28.348Z,58.84
2022-10-21T12:17:56.815Z,59.57
2022-10-21T12:20:28.351Z,59.83
2022-10-21T12:23:02.348Z,58.15
2022-10-21T12:25:39.188Z,58.50
2022-10-21T12:28:12.980Z,58.18
2022-10-21T12:30:48.186Z,58.06
2022-10-21T12:33:25.474Z,58.67
2022-10-21T12:35:56.175Z,58.91
2022-10-21T12:38:44.587Z,57.73
2022-10-21T12:41:34.612Z,58.48
2022-10-21T12:44:14.834Z,58.33
2022-10-21T12:46:46.818Z,59.15
2022-10-21T12:49:32.750Z,59.01
2022-10-21T12:52:09.583Z,57.93
2022-10-21T12:54:44.632Z,58.49
2022-10-21T12:57:23.751Z,58.38
2022-10-21T12:59:52.155Z,58.77
2022-10-21T13:02:29.383Z,58.29
2022-10-21T13:04:59.840Z,58.64
2022-10-21T13:07:36.703Z,59.06
2022-10-21T13:10:31.839Z,58.67
2022-10-21T13:13:42.304Z,58.34
2022-10-21T13:16:38.126Z,58.41
2022-10-21T13:19:34.269Z,58.35
2022-10-21T13:22:04.991Z,58.28
2022-10-21T13:24:35.030Z,58.61
2022-10-21T13:27:05.945Z,57.67
2022-10-21T13:29:46.487Z,57.38
2022-10-21T13:32:25.862Z,57.74
2022-10-21T13:35:32.520Z,57.92
2022-10-21T13:38:18.739Z,57.91
2022-10-21T13:40:50.125Z,57.98
2022-10-21T13:43:28.840Z,57.98
2022-10-21T13:46:05.543Z,58.93
2022-10-21T13:48:39.679Z,59.27
2022-10-21T13:51:16.017Z,58.23
2022-10-21T13:53:47.021Z,57.78
2022-10-21T13:56:23.439Z,57.84
2022-10-21T13:58:51.956Z,57.72
2022-10-21T14:01:22.466Z,57.75
2022-10-21T14:03:51.105Z,58.25
2022-10-21T14:06:30.407Z,58.47
2022-10-21T14:09:01.952Z,58.63
2022-10-21T14:11:34.953Z,58.61
2022-10-21T14:14:09.819Z,58.49
2022-10-21T14:16:41.253Z,58.81
2022-10-21T14:19:12.334Z,59.20
2022-10-21T14:21:45.210Z,59.10
2022-10-21T14:24:28.030Z,58.86
2022-10-21T14:26:57.093Z,58.90
2022-10-21T14:29:27.900Z,59.23
2022-10-21T14:31:56.680Z,59.20
2022-10-21T14:34:26.380Z,58.51
2022-10-21T14:37:09.345Z,58.31
2022-10-21T14:39:41.464Z,58.46
2022-10-21T14:42:29.125Z,58.47
2022-10-21T14:45:04.787Z,58.05
2022-10-21T14:47:33.006Z,58.16
2022-10-21T14:50:19.653Z,58.85
2022-10-21T14:52:49.453Z,59.06
2022-10-21T14:55:29.071Z,59.28
2022-10-21T14:58:06.360Z,59.51
2022-10-21T15:00:41.494Z,59.32
2022-10-21T15:03:11.362Z,59.55
2022-10-21T15:05:44.111Z,59.16
2022-10-21T15:08:32.387Z,59.83
2022-10-21T15:11:36.877Z,60.14
2022-10-21T15:14:20.947Z,60.65
2022-10-21T15:16:52.889Z,60.63
2022-10-21T15:19:24.217Z,61.18
2022-10-21T15:21:55.992Z,61.68
2022-10-21T15:24:31.354Z,62.09
2022-10-21T15:27:04.297Z,62.04
2022-10-21T15:29:37.134Z,62.04
2022-10-21T15:32:07.122Z,62.47
2022-10-21T15:34:35.281Z,62.70
2022-10-21T15:37:03.721Z,62.97
2022-10-21T15:39:31.985Z,63.32
2022-10-21T15:42:02.087Z,63.82
2022-10-21T15:44:31.738Z,64.44
2022-10-21T15:47:02.694Z,64.74
2022-10-21T15:49:34.141Z,65.11
2022-10-21T15:52:02.665Z,65.36
2022-10-21T15:54:30.777Z,65.65
2022-10-21T15:57:00.826Z,65.78
2022-10-21T15:59:32.541Z,65.95
2022-10-21T16:02:02.797Z,66.71
2022-10-21T16:04:33.782Z,66.78
2022-10-21T16:07:02.149Z,67.41
2022-10-21T16:09:31.548Z,67.70
2022-10-21T16:12:01.412Z,68.93
2022-10-21T16:14:31.382Z,70.40
2022-10-21T16:17:00.471Z,71.38
2022-10-21T16:19:29.300Z,72.55
2022-10-21T16:21:57.841Z,73.10
2022-10-21T16:24:26.115Z,73.49
2022-10-21T16:26:55.726Z,73.69
2022-10-21T16:29:25.364Z,74.33
2022-10-21T16:31:55.754Z,74.85
2022-10-21T16:34:23.926Z,75.16
2022-10-21T16:36:52.101Z,75.66
2022-10-21T16:39:24.412Z,76.04
2022-10-21T16:41:52.992Z,76.95
2022-10-21T16:44:21.084Z,77.30
2022-10-21T16:46:53.939Z,77.71
2022-10-21T16:49:26.599Z,78.41
2022-10-21T16:51:57.528Z,78.60
2022-10-21T16:54:25.623Z,79.06
2022-10-21T16:56:55.330Z,79.43
2022-10-21T16:59:24.083Z,80.07
2022-10-21T17:01:52.808Z,79.89
2022-10-21T17:04:21.173Z,80.38
2022-10-21T17:06:50.704Z,81.24
2022-10-21T17:09:19.732Z,81.64
2022-10-21T17:11:48.067Z,81.92
2022-10-21T17:14:18.236Z,82.40
2022-10-21T17:16:47.197Z,83.33
2022-10-21T17:19:15.906Z,83.34
2022-10-21T17:21:44.547Z,83.79
2022-10-21T17:24:16.203Z,84.36
2022-10-21T17:26:44.545Z,84.64
2022-10-21T17:29:12.628Z,84.70
2022-10-21T17:31:42.523Z,85.04
2022-10-21T17:34:28.833Z,85.32
2022-10-21T17:36:57.001Z,85.48
2022-10-21T17:39:26.877Z,85.44
2022-10-21T17:41:55.091Z,85.80
2022-10-21T17:44:23.523Z,86.25
2022-10-21T17:46:55.273Z,86.80
2022-10-21T17:49:24.011Z,86.86
2022-10-21T17:51:52.792Z,86.91
2022-10-21T17:54:24.197Z,87.59
2022-10-21T17:56:58.199Z,87.54
2022-10-21T17:59:26.815Z,87.81
2022-10-21T18:01:55.014Z,87.58
2022-10-21T18:04:23.302Z,87.48
2022-10-21T18:06:51.484Z,87.56
2022-10-21T18:09:19.661Z,87.88
2022-10-21T18:11:47.931Z,88.45
2022-10-21T18:14:17.643Z,88.11
2022-10-21T18:16:45.912Z,88.84
2022-10-21T18:19:14.341Z,88.81
2022-10-21T18:21:42.361Z,88.85
2022-10-21T18:24:12.658Z,89.20
2022-10-21T18:26:41.185Z,89.51
2022-10-21T18:29:09.553Z,89.17
2022-10-21T18:31:39.543Z,89.04
2022-10-21T18:34:09.985Z,88.49
2022-10-21T18:36:38.211Z,88.46
2022-10-21T18:39:06.851Z,88.59
2022-10-21T18:41:35.357Z,87.88
2022-10-21T18:44:08.366Z,87.67
2022-10-21T18:46:38.607Z,87.42
2022-10-21T18:49:09.022Z,87.42
2022-10-21T18:51:37.506Z,88.23
2022-10-21T18:54:06.056Z,87.35
2022-10-21T18:56:34.265Z,87.19
2022-10-21T18:59:07.014Z,87.03
2022-10-21T19:01:35.526Z,87.91
2022-10-21T19:04:05.473Z,89.02
2022-10-21T19:06:38.925Z,90.15
2022-10-21T19:09:12.980Z,90.80
2022-10-21T19:11:41.294Z,91.59
2022-10-21T19:14:12.981Z,91.43
2022-10-21T19:16:43.084Z,91.16
2022-10-21T19:19:13.783Z,91.04
2022-10-21T19:21:42.292Z,91.71
2022-10-21T19:24:11.325Z,91.37
2022-10-21T19:26:40.854Z,92.20
2022-10-21T19:29:13.437Z,92.34
2022-10-21T19:31:42.691Z,91.98
2022-10-21T19:34:14.186Z,92.03
2022-10-21T19:36:42.504Z,91.26
2022-10-21T19:39:10.955Z,91.76
2022-10-21T19:41:39.238Z,92.45
2022-10-21T19:44:07.688Z,92.79
2022-10-21T19:46:36.716Z,92.89
2022-10-21T19:49:07.538Z,93.76
2022-10-21T19:51:38.183Z,92.75
2022-10-21T19:54:07.550Z,91.61
2022-10-21T19:56:36.510Z,91.50
2022-10-21T19:59:05.874Z,90.96
2022-10-21T20:01:35.559Z,91.60
2022-10-21T20:04:05.250Z,92.09
2022-10-21T20:06:34.474Z,92.80
2022-10-21T20:09:06.478Z,93.57
2022-10-21T20:11:34.905Z,93.99
2022-10-21T20:14:04.310Z,94.70
2022-10-21T20:16:34.528Z,95.30
2022-10-21T20:19:04.944Z,94.53
2022-10-21T20:21:35.014Z,94.79
2022-10-21T20:24:05.037Z,95.40
2022-10-21T20:26:33.254Z,95.57
2022-10-21T20:29:02.105Z,96.06
2022-10-21T20:31:30.405Z,96.40
2022-10-21T20:33:58.743Z,96.69
2022-10-21T20:36:28.861Z,97.26
2022-10-21T20:38:58.658Z,97.49
2022-10-21T20:41:33.560Z,98.07
2022-10-21T20:44:02.660Z,98.64
2022-10-21T20:46:35.400Z,99.48
2022-10-21T20:49:06.765Z,100.00
2022-10-21T20:51:36.141Z,100.00
2022-10-21T20:54:07.104Z,100.00
2022-10-21T20:56:39.567Z,100.00
2022-10-21T20:59:10.803Z,100.00
2022-10-21T21:01:42.316Z,100.00
2022-10-21T21:04:13.220Z,100.00
2022-10-21T21:06:43.665Z,100.00
2022-10-21T21:09:37.782Z,100.00
2022-10-21T21:12:04.204Z,100.00
2022-10-21T21:14:33.514Z,100.00
2022-10-21T21:17:01.605Z,100.00
2022-10-21T21:19:29.727Z,100.00
2022-10-21T21:21:57.857Z,100.00
2022-10-21T21:24:26.984Z,100.00
2022-10-21T21:26:55.157Z,100.00
2022-10-21T21:29:24.922Z,100.00
2022-10-21T21:31:54.519Z,100.00
2022-10-21T21:34:23.585Z,100.00
2022-10-21T21:36:51.708Z,100.00
2022-10-21T21:39:19.909Z,100.00
2022-10-21T21:41:48.067Z,100.00
2022-10-21T21:44:16.164Z,100.00
2022-10-21T21:46:46.194Z,100.00
2022-10-21T21:49:14.802Z,100.00
2022-10-21T21:51:42.956Z,100.00
2022-10-21T21:54:12.247Z,100.00
2022-10-21T21:56:40.448Z,100.00
2022-10-21T21:59:09.304Z,100.00
2022-10-21T22:01:37.932Z,100.00
2022-10-21T22:04:07.524Z,100.00
2022-10-21T22:06:38.461Z,100.00
2022-10-21T22:09:11.720Z,100.00
2022-10-21T22:11:40.390Z,100.00
2022-10-21T22:14:08.706Z,100.00
2022-10-21T22:16:37.223Z,100.00
2022-10-21T22:19:08.080Z,100.00
2022-10-21T22:21:36.206Z,100.00
2022-10-21T22:24:04.642Z,100.00
2022-10-21T22:26:32.746Z,100.00
2022-10-21T22:29:00.802Z,100.00
2022-10-21T22:31:30.816Z,100.00
2022-10-21T22:34:00.645Z,100.00
2022-10-21T22:36:30.398Z,100.00
2022-10-21T22:38:59.038Z,100.00
2022-10-21T22:41:28.296Z,100.00
2022-10-21T22:43:56.671Z,100.00
2022-10-21T22:46:40.664Z,100.00
2022-10-21T22:49:11.042Z,100.00
2022-10-21T22:51:41.126Z,100.00
2022-10-21T22:54:19.109Z,100.00
2022-10-21T22:56:57.854Z,100.00
2022-10-21T22:59:25.962Z,100.00
2022-10-21T23:01:54.097Z,100.00
2022-10-21T23:04:22.732Z,100.00
2022-10-21T23:06:52.251Z,100.00
2022-10-21T23:09:20.719Z,100.00
2022-10-21T23:11:48.902Z,100.00
2022-10-21T23:14:17.031Z,100.00
2022-10-21T23:16:45.163Z,100.00
2022-10-21T23:19:13.338Z,100.00
2022-10-21T23:21:42.442Z,100.00
2022-10-21T23:24:12.567Z,100.00
2022-10-21T23:26:40.615Z,100.00
2022-10-21T23:29:08.849Z,100.00
2022-10-21T23:31:36.999Z,100.00
2022-10-21T23:34:06.107Z,100.00
2022-10-21T23:36:34.581Z,100.00
2022-10-21T23:39:03.515Z,100.00
2022-10-21T23:41:33.000Z,100.00
2022-10-21T23:44:01.101Z,100.00
2022-10-21T23:46:29.458Z,100.00
2022-10-21T23:48:57.572Z,100.00
2022-10-21T23:51:25.853Z,100.00
2022-10-21T23:53:53.930Z,100.00
2022-10-21T23:56:21.981Z,100.00
2022-10-21T23:58:51.406Z,100.00
